createdAt,value
2022-08-14T00:00:15.983Z,-23958.75
2022-08-14T00:03:02.965Z,-23963.84
2022-08-14T00:05:58.407Z,-23959.22
2022-08-14T00:08:47.292Z,-23959.47
2022-08-14T00:11:36.491Z,-23953.66
2022-08-14T00:14:31.004Z,-23945.38
2022-08-14T00:17:17.994Z,-23945.38
2022-08-14T00:20:08.227Z,-23944.41
2022-08-14T00:22:58.417Z,-23935.66
2022-08-14T00:25:54.095Z,-23929.59
2022-08-14T00:28:46.347Z,-23932.75
2022-08-14T00:31:35.131Z,-23943.19
2022-08-14T00:34:36.262Z,-23945.38
2022-08-14T00:37:34.651Z,-23942.72
2022-08-14T00:40:33.559Z,-23944.16
2022-08-14T00:43:22.575Z,-23944.66
2022-08-14T00:46:32.219Z,-23948.06
2022-08-14T00:49:21.121Z,-23947.31
2022-08-14T00:52:08.859Z,-23943.19
2022-08-14T00:55:02.227Z,-23941.25
2022-08-14T00:58:09.327Z,-23947.09
2022-08-14T01:00:57.340Z,-23938.81
2022-08-14T01:03:45.851Z,-23928.38
2022-08-14T01:06:40.106Z,-23932.28
2022-08-14T01:09:30.154Z,-23945.38
2022-08-14T01:12:27.077Z,-23946.84
2022-08-14T01:15:18.326Z,-23930.81
2022-08-14T01:18:23.988Z,-23937.59
2022-08-14T01:21:17.639Z,-23925.22
2022-08-14T01:24:07.512Z,-23940.03
2022-08-14T01:27:00.043Z,-23931.78
2022-08-14T01:30:01.258Z,-23932.75
2022-08-14T01:32:51.915Z,-23924.75
2022-08-14T01:36:03.830Z,-23932.75
2022-08-14T01:38:51.617Z,-23939.06
2022-08-14T01:41:39.292Z,-23939.56
2022-08-14T01:44:32.182Z,-23941.50
2022-08-14T01:47:22.237Z,-23941.25
2022-08-14T01:50:10.396Z,-23940.78
2022-08-14T01:53:02.066Z,-23940.53
2022-08-14T01:55:51.756Z,-23935.19
2022-08-14T01:58:55.640Z,-23936.63
2022-08-14T02:01:57.962Z,-23937.59
2022-08-14T02:04:57.127Z,-23927.41
2022-08-14T02:07:53.723Z,-23928.88
2022-08-14T02:10:46.604Z,-23931.78
2022-08-14T02:13:35.539Z,-23933.72
2022-08-14T02:16:29.634Z,-23926.94
2022-08-14T02:19:19.085Z,-23922.06
2022-08-14T02:22:07.699Z,-23924.97
2022-08-14T02:24:57.408Z,-23939.56
2022-08-14T02:28:23.956Z,-23940.28
2022-08-14T02:30:53.184Z,-23935.91
2022-08-14T02:33:41.945Z,-23938.34
2022-08-14T02:37:02.577Z,-23927.16
2022-08-14T02:39:39.067Z,-23934.69
2022-08-14T02:42:37.433Z,-23931.78
2022-08-14T02:45:33.464Z,-23928.38
2022-08-14T02:49:02.972Z,-23921.84
2022-08-14T02:51:38.890Z,-23911.38
2022-08-14T02:54:27.717Z,-23911.88
2022-08-14T02:57:39.797Z,-23922.31
2022-08-14T03:00:22.552Z,-23924.00
2022-08-14T03:03:09.667Z,-23916.50
2022-08-14T03:05:56.840Z,-23921.59
2022-08-14T03:08:46.167Z,-23924.50
2022-08-14T03:11:35.104Z,-23924.75
2022-08-14T03:14:27.425Z,-23920.63
2022-08-14T03:17:15.399Z,-23920.13
2022-08-14T03:20:06.647Z,-23923.53
2022-08-14T03:23:02.953Z,-23929.84
2022-08-14T03:25:51.466Z,-23932.03
2022-08-14T03:28:42.234Z,-23939.06
2022-08-14T03:31:30.139Z,-23933.72
2022-08-14T03:34:24.308Z,-23939.31
2022-08-14T03:37:39.395Z,-23947.31
2022-08-14T03:40:33.919Z,-23938.34
2022-08-14T03:43:21.428Z,-23941.97
2022-08-14T03:46:38.593Z,-23938.09
2022-08-14T03:49:24.324Z,-23944.91
2022-08-14T03:52:37.947Z,-23954.63
2022-08-14T03:55:23.527Z,-23953.16
2022-08-14T03:58:12.987Z,-23953.16
2022-08-14T04:01:16.221Z,-23956.78
2022-08-14T04:04:06.298Z,-23955.09
2022-08-14T04:06:55.022Z,-23968.69
2022-08-14T04:09:46.231Z,-23969.19
2022-08-14T04:12:33.989Z,-23969.19
2022-08-14T04:15:23.556Z,-23970.63
2022-08-14T04:18:11.878Z,-23971.38
2022-08-14T04:20:59.481Z,-23982.03
2022-08-14T04:23:56.931Z,-23980.59
2022-08-14T04:26:45.100Z,-23976.72
2022-08-14T04:29:38.410Z,-23948.28
2022-08-14T04:33:01.331Z,-23920.63
2022-08-14T04:35:55.466Z,-23916.00
2022-08-14T04:38:59.339Z,-23920.63
2022-08-14T04:42:07.152Z,-23933.25
2022-08-14T04:45:01.396Z,-23937.59
2022-08-14T04:48:09.860Z,-23928.88
2022-08-14T04:50:57.397Z,-23925.94
2022-08-14T04:53:46.664Z,-23928.88
2022-08-14T04:56:35.480Z,-23918.44
2022-08-14T04:59:23.435Z,-23911.63
2022-08-14T05:02:10.669Z,-23911.38
2022-08-14T05:04:58.631Z,-23916.25
2022-08-14T05:07:54.016Z,-23915.75
2022-08-14T05:10:47.327Z,-23913.31
2022-08-14T05:13:59.588Z,-23892.94
2022-08-14T05:16:46.807Z,-23865.75
2022-08-14T05:19:36.533Z,-23873.75
2022-08-14T05:22:32.016Z,-23883.22
2022-08-14T05:25:19.509Z,-23891.00
2022-08-14T05:28:20.536Z,-23896.09
2022-08-14T05:31:08.080Z,-23899.50
2022-08-14T05:33:56.718Z,-23898.75
2022-08-14T05:36:50.332Z,-23901.66
2022-08-14T05:39:40.780Z,-23904.09
2022-08-14T05:42:29.152Z,-23901.44
2022-08-14T05:45:20.080Z,-23886.88
2022-08-14T05:48:07.996Z,-23854.56
2022-08-14T05:50:57.024Z,-23800.44
2022-08-14T05:53:44.235Z,-23782.97
2022-08-14T05:56:48.873Z,-23788.06
2022-08-14T05:59:40.117Z,-23793.88
2022-08-14T06:02:27.185Z,-23790.50
2022-08-14T06:05:16.383Z,-23775.94
2022-08-14T06:08:36.615Z,-23769.84
2022-08-14T06:11:31.187Z,-23778.59
2022-08-14T06:14:21.344Z,-23766.22
2022-08-14T06:17:11.192Z,-23762.09
2022-08-14T06:20:13.748Z,-23765.00
2022-08-14T06:23:00.922Z,-23778.59
2022-08-14T06:25:53.347Z,-23764.28
2022-08-14T06:28:41.026Z,-23770.59
2022-08-14T06:31:32.753Z,-23760.88
2022-08-14T06:35:11.583Z,-23747.53
2022-08-14T06:37:27.818Z,-23747.03
2022-08-14T06:40:27.838Z,-23758.94
2022-08-14T06:43:17.463Z,-23761.84
2022-08-14T06:46:06.843Z,-23759.41
2022-08-14T06:49:04.415Z,-23764.28
2022-08-14T06:51:52.501Z,-23766.94
2022-08-14T06:54:40.793Z,-23762.84
2022-08-14T06:57:37.619Z,-23776.66
2022-08-14T07:00:30.393Z,-23775.94
2022-08-14T07:03:37.033Z,-23769.13
2022-08-14T07:06:45.482Z,-23766.69
2022-08-14T07:09:43.604Z,-23767.69
2022-08-14T07:12:54.458Z,-23784.66
2022-08-14T07:15:49.255Z,-23783.19
2022-08-14T07:18:42.114Z,-23784.91
2022-08-14T07:21:29.879Z,-23780.28
2022-08-14T07:24:26.533Z,-23773.25
2022-08-14T07:27:18.288Z,-23760.88
2022-08-14T07:30:34.781Z,-23745.84
2022-08-14T07:33:17.539Z,-23765.25
2022-08-14T07:36:27.732Z,-23765.00
2022-08-14T07:39:17.489Z,-23770.09
2022-08-14T07:42:15.257Z,-23776.41
2022-08-14T07:45:07.407Z,-23766.69
2022-08-14T07:47:57.935Z,-23777.38
2022-08-14T07:50:46.209Z,-23791.47
2022-08-14T07:53:36.605Z,-23791.94
2022-08-14T07:56:44.125Z,-23773.50
2022-08-14T07:59:42.328Z,-23765.97
2022-08-14T08:02:32.615Z,-23750.94
2022-08-14T08:05:20.122Z,-23765.25
2022-08-14T08:08:27.211Z,-23756.03
2022-08-14T08:11:15.732Z,-23766.94
2022-08-14T08:14:17.327Z,-23766.22
2022-08-14T08:17:06.488Z,-23760.41
2022-08-14T08:19:54.111Z,-23764.75
2022-08-14T08:22:43.447Z,-23767.69
2022-08-14T08:25:39.964Z,-23736.88
2022-08-14T08:28:28.509Z,-23745.34
2022-08-14T08:31:15.713Z,-23762.09
2022-08-14T08:34:06.376Z,-23764.03
2022-08-14T08:36:53.525Z,-23762.09
2022-08-14T08:40:02.631Z,-23769.63
2022-08-14T08:42:52.026Z,-23761.84
2022-08-14T08:45:40.211Z,-23757.00
2022-08-14T08:48:31.806Z,-23753.13
2022-08-14T08:51:43.153Z,-23753.59
2022-08-14T08:54:31.101Z,-23760.16
2022-08-14T08:57:21.466Z,-23749.72
2022-08-14T09:00:25.430Z,-23750.44
2022-08-14T09:03:17.647Z,-23751.19
2022-08-14T09:07:00.974Z,-23757.97
2022-08-14T09:09:53.956Z,-23764.75
2022-08-14T09:12:51.683Z,-23757.72
2022-08-14T09:15:42.668Z,-23753.34
2022-08-14T09:18:30.300Z,-23760.16
2022-08-14T09:21:18.419Z,-23770.34
2022-08-14T09:24:30.218Z,-23770.84
2022-08-14T09:27:22.280Z,-23771.81
2022-08-14T09:30:31.029Z,-23764.53
2022-08-14T09:33:55.867Z,-23771.81
2022-08-14T09:37:07.266Z,-23779.81
2022-08-14T09:40:11.274Z,-23768.66
2022-08-14T09:43:30.918Z,-23792.19
2022-08-14T09:46:21.322Z,-23770.34
2022-08-14T09:49:16.638Z,-23770.34
2022-08-14T09:52:23.647Z,-23776.41
2022-08-14T09:55:24.151Z,-23788.31
2022-08-14T09:58:23.039Z,-23782.50
2022-08-14T10:01:14.199Z,-23784.66
2022-08-14T10:04:01.162Z,-23795.84
2022-08-14T10:06:48.898Z,-23783.94
2022-08-14T10:09:57.684Z,-23806.75
2022-08-14T10:12:53.151Z,-23815.25
2022-08-14T10:15:46.242Z,-23809.41
2022-08-14T10:18:34.268Z,-23823.00
2022-08-14T10:21:22.499Z,-23806.50
2022-08-14T10:24:24.411Z,-23807.25
2022-08-14T10:27:25.331Z,-23806.25
2022-08-14T10:30:22.471Z,-23798.72
2022-08-14T10:33:12.436Z,-23805.53
2022-08-14T10:36:00.942Z,-23819.63
2022-08-14T10:38:58.043Z,-23798.03
2022-08-14T10:41:49.160Z,-23807.97
2022-08-14T10:44:42.124Z,-23815.00
2022-08-14T10:48:07.624Z,-23799.22
2022-08-14T10:50:51.466Z,-23824.94
2022-08-14T10:53:40.404Z,-23827.38
2022-08-14T10:56:34.249Z,-23840.00
2022-08-14T10:59:30.489Z,-23842.91
2022-08-14T11:02:22.345Z,-23847.53
2022-08-14T11:05:41.943Z,-23858.94
2022-08-14T11:08:34.142Z,-23859.69
2022-08-14T11:11:23.091Z,-23843.88
2022-08-14T11:14:10.005Z,-23841.94
2022-08-14T11:16:58.160Z,-23856.03
2022-08-14T11:19:45.719Z,-23865.25
2022-08-14T11:22:55.785Z,-23853.84
2022-08-14T11:25:53.478Z,-23846.31
2022-08-14T11:28:48.189Z,-23862.84
2022-08-14T11:31:39.005Z,-23874.25
2022-08-14T11:34:29.987Z,-23865.97
2022-08-14T11:37:33.860Z,-23868.16
2022-08-14T11:40:30.928Z,-23886.63
2022-08-14T11:43:22.748Z,-23888.09
2022-08-14T11:46:17.776Z,-23870.13
2022-08-14T11:49:27.320Z,-23877.88
2022-08-14T11:52:22.528Z,-23896.81
2022-08-14T11:55:12.902Z,-23876.44
2022-08-14T11:58:10.637Z,-23882.72
2022-08-14T12:01:07.018Z,-23871.31
2022-08-14T12:03:57.511Z,-23899.25
2022-08-14T12:06:53.815Z,-23910.91
2022-08-14T12:09:43.013Z,-23920.84
2022-08-14T12:12:35.630Z,-23914.78
2022-08-14T12:15:57.634Z,-23937.59
2022-08-14T12:18:50.888Z,-23928.63
2022-08-14T12:21:51.827Z,-23915.50
2022-08-14T12:24:46.505Z,-23924.97
2022-08-14T12:27:52.470Z,-23914.53
2022-08-14T12:30:44.067Z,-23920.13
2022-08-14T12:33:34.013Z,-23911.88
2022-08-14T12:36:21.827Z,-23908.00
2022-08-14T12:39:23.876Z,-23910.66
2022-08-14T12:42:11.903Z,-23902.66
2022-08-14T12:45:16.760Z,-23912.38
2022-08-14T12:48:21.295Z,-23939.31
2022-08-14T12:51:31.473Z,-23936.41
2022-08-14T12:54:28.407Z,-23953.88
2022-08-14T12:57:20.054Z,-23952.66
2022-08-14T13:00:24.628Z,-23965.78
2022-08-14T13:03:23.614Z,-23964.31
2022-08-14T13:06:14.782Z,-23970.63
2022-08-14T13:09:07.812Z,-23979.38
2022-08-14T13:12:32.576Z,-23984.47
2022-08-14T13:15:13.156Z,-23989.34
2022-08-14T13:18:04.799Z,-23985.22
2022-08-14T13:20:57.895Z,-23978.41
2022-08-14T13:23:49.819Z,-23978.41
2022-08-14T13:26:37.379Z,-23981.56
2022-08-14T13:29:28.313Z,-23987.63
2022-08-14T13:32:18.222Z,-23996.88
2022-08-14T13:35:16.275Z,-24008.53
2022-08-14T13:38:04.729Z,-24002.22
2022-08-14T13:40:56.068Z,-24004.63
2022-08-14T13:43:49.355Z,-24017.75
2022-08-14T13:46:48.529Z,-24031.84
2022-08-14T13:49:40.341Z,-24021.16
2022-08-14T13:52:55.129Z,-24002.69
2022-08-14T13:55:44.271Z,-24019.69
2022-08-14T13:58:39.346Z,-24024.06
2022-08-14T14:01:42.647Z,-24021.66
2022-08-14T14:04:31.340Z,-24016.28
2022-08-14T14:07:23.341Z,-24027.69
2022-08-14T14:10:11.561Z,-24042.75
2022-08-14T14:13:01.847Z,-24045.44
2022-08-14T14:15:58.340Z,-24018.47
2022-08-14T14:18:52.505Z,-24024.31
2022-08-14T14:21:40.453Z,-24036.22
2022-08-14T14:24:34.731Z,-24033.31
2022-08-14T14:27:40.626Z,-24034.28
2022-08-14T14:30:52.074Z,-24035.22
2022-08-14T14:33:48.988Z,-24018.25
2022-08-14T14:36:37.177Z,-24032.81
2022-08-14T14:39:29.048Z,-24042.75
2022-08-14T14:42:31.945Z,-24045.44
2022-08-14T14:45:23.557Z,-24044.47
2022-08-14T14:48:12.105Z,-24045.44
2022-08-14T14:51:03.363Z,-24026.75
2022-08-14T14:53:52.828Z,-24030.88
2022-08-14T14:56:50.258Z,-24027.69
2022-08-14T14:59:41.026Z,-24017.03
2022-08-14T15:02:36.664Z,-24006.09
2022-08-14T15:05:24.496Z,-24017.03
2022-08-14T15:08:16.866Z,-23993.00
2022-08-14T15:11:05.531Z,-24011.94
2022-08-14T15:14:01.562Z,-23999.06
2022-08-14T15:17:08.727Z,-24002.69
2022-08-14T15:19:57.539Z,-23989.81
2022-08-14T15:22:51.294Z,-24003.41
2022-08-14T15:25:38.703Z,-24013.38
2022-08-14T15:28:27.334Z,-24015.81
2022-08-14T15:31:14.352Z,-24010.22
2022-08-14T15:34:45.808Z,-24010.94
2022-08-14T15:37:25.718Z,-24009.75
2022-08-14T15:40:22.514Z,-24007.53
2022-08-14T15:43:11.020Z,-23940.28
2022-08-14T15:46:06.351Z,-23909.69
2022-08-14T15:48:54.966Z,-23842.69
2022-08-14T15:51:43.583Z,-23810.88
2022-08-14T15:54:31.907Z,-23808.47
2022-08-14T15:57:21.270Z,-23814.03
2022-08-14T16:00:43.684Z,-23805.53
2022-08-14T16:03:35.300Z,-23795.09
2022-08-14T16:06:30.385Z,-23816.94
2022-08-14T16:09:17.426Z,-23826.44
2022-08-14T16:12:05.704Z,-23810.16
2022-08-14T16:14:52.877Z,-23806.03
2022-08-14T16:17:44.274Z,-23823.25
2022-08-14T16:20:42.007Z,-23838.06
2022-08-14T16:23:36.110Z,-23829.34
2022-08-14T16:26:29.876Z,-23873.50
2022-08-14T16:29:20.423Z,-23885.91
2022-08-14T16:32:32.759Z,-23886.13
2022-08-14T16:35:18.191Z,-23889.53
2022-08-14T16:38:44.698Z,-23920.13
2022-08-14T16:41:17.495Z,-23927.41
2022-08-14T16:44:22.136Z,-23938.59
2022-08-14T16:47:17.531Z,-23925.47
2022-08-14T16:50:11.414Z,-23921.34
2022-08-14T16:53:00.873Z,-23935.19
2022-08-14T16:56:17.236Z,-23943.44
2022-08-14T16:59:13.910Z,-23923.03
2022-08-14T17:02:05.243Z,-23905.81
2022-08-14T17:04:53.168Z,-23903.13
2022-08-14T17:07:45.806Z,-23900.94
2022-08-14T17:10:43.674Z,-23859.44
2022-08-14T17:13:57.683Z,-23874.00
2022-08-14T17:16:39.654Z,-23885.66
2022-08-14T17:19:27.035Z,-23892.44
2022-08-14T17:22:18.237Z,-23896.34
2022-08-14T17:25:05.783Z,-23878.84
2022-08-14T17:28:52.394Z,-23886.88
2022-08-14T17:31:58.600Z,-23894.38
2022-08-14T17:34:57.947Z,-23892.94
2022-08-14T17:37:55.858Z,-23886.13
2022-08-14T17:40:43.588Z,-23891.47
2022-08-14T17:43:41.121Z,-23896.56
2022-08-14T17:46:37.098Z,-23904.81
2022-08-14T17:49:33.596Z,-23905.56
2022-08-14T17:52:34.126Z,-23898.28
2022-08-14T17:56:02.604Z,-23909.44
2022-08-14T17:58:38.600Z,-23912.38
2022-08-14T18:01:30.117Z,-23906.28
2022-08-14T18:04:27.787Z,-23905.56
2022-08-14T18:08:00.121Z,-23909.94
2022-08-14T18:10:52.906Z,-23907.75
2022-08-14T18:13:51.170Z,-23911.16
2022-08-14T18:16:42.466Z,-23910.66
2022-08-14T18:19:31.685Z,-23905.56
2022-08-14T18:22:37.005Z,-23886.13
2022-08-14T18:25:29.211Z,-23891.00
2022-08-14T18:28:18.423Z,-23887.34
2022-08-14T18:31:24.511Z,-23881.78
2022-08-14T18:34:31.335Z,-23885.16
2022-08-14T18:37:20.528Z,-23879.09
2022-08-14T18:40:17.654Z,-23884.19
2022-08-14T18:43:05.117Z,-23889.53
2022-08-14T18:46:01.069Z,-23893.44
2022-08-14T18:49:14.322Z,-23881.03
2022-08-14T18:52:18.886Z,-23886.13
2022-08-14T18:55:21.461Z,-23891.47
2022-08-14T18:58:31.452Z,-23883.22
2022-08-14T19:01:26.688Z,-23887.34
2022-08-14T19:04:36.054Z,-23881.78
2022-08-14T19:07:23.634Z,-23880.78
2022-08-14T19:10:16.994Z,-23877.16
2022-08-14T19:13:13.076Z,-23876.91
2022-08-14T19:16:23.324Z,-23865.97
2022-08-14T19:19:12.420Z,-23859.44
2022-08-14T19:21:59.800Z,-23841.22
2022-08-14T19:24:50.294Z,-23837.56
2022-08-14T19:27:37.976Z,-23837.56
2022-08-14T19:30:25.463Z,-23830.28
2022-08-14T19:33:46.714Z,-23818.66
2022-08-14T19:37:04.695Z,-23821.56
2022-08-14T19:39:54.930Z,-23828.34
2022-08-14T19:42:46.496Z,-23830.78
2022-08-14T19:45:34.473Z,-23843.16
2022-08-14T19:48:21.757Z,-23846.09
2022-08-14T19:51:08.861Z,-23848.03
2022-08-14T19:54:13.299Z,-23849.97
2022-08-14T19:57:01.298Z,-23840.25
2022-08-14T19:59:57.679Z,-23846.56
2022-08-14T20:02:49.102Z,-23837.56
2022-08-14T20:05:46.005Z,-23836.63
2022-08-14T20:10:59.505Z,-23840.97
2022-08-14T20:12:01.649Z,-23846.09
2022-08-14T20:14:51.909Z,-23853.63
2022-08-14T20:17:40.365Z,-23852.16
2022-08-14T20:20:32.066Z,-23852.38
2022-08-14T20:23:20.335Z,-23844.13
2022-08-14T20:26:31.974Z,-23832.25
2022-08-14T20:29:31.327Z,-23842.91
2022-08-14T20:32:32.505Z,-23822.53
2022-08-14T20:35:44.420Z,-23816.69
2022-08-14T20:38:34.789Z,-23820.34
2022-08-14T20:41:22.714Z,-23821.06
2022-08-14T20:44:28.953Z,-23820.34
2022-08-14T20:47:19.033Z,-23827.38
2022-08-14T20:50:16.571Z,-23823.50
2022-08-14T20:53:29.110Z,-23824.72
2022-08-14T20:56:28.142Z,-23823.25
2022-08-14T20:59:21.399Z,-23814.28
2022-08-14T21:02:29.449Z,-23818.66
2022-08-14T21:05:20.698Z,-23808.94
2022-08-14T21:08:22.552Z,-23789.53
2022-08-14T21:11:20.045Z,-23785.88
2022-08-14T21:14:24.561Z,-23788.06
2022-08-14T21:17:14.765Z,-23799.97
2022-08-14T21:20:26.547Z,-23803.13
2022-08-14T21:23:14.402Z,-23810.41
2022-08-14T21:26:03.682Z,-23798.72
2022-08-14T21:28:52.603Z,-23796.81
2022-08-14T21:31:40.668Z,-23803.13
2022-08-14T21:34:32.353Z,-23809.66
2022-08-14T21:37:19.704Z,-23793.41
2022-08-14T21:40:40.888Z,-23791.47
2022-08-14T21:43:19.473Z,-23797.78
2022-08-14T21:46:06.556Z,-23782.50
2022-08-14T21:48:53.846Z,-23774.97
2022-08-14T21:51:53.984Z,-23775.69
2022-08-14T21:54:49.457Z,-23778.34
2022-08-14T21:58:42.627Z,-23773.25
2022-08-14T22:00:52.799Z,-23779.09
2022-08-14T22:03:45.356Z,-23786.84
2022-08-14T22:06:41.898Z,-23773.75
2022-08-14T22:09:36.206Z,-23768.66
2022-08-14T22:12:58.271Z,-23766.69
2022-08-14T22:15:32.017Z,-23771.56
2022-08-14T22:18:21.596Z,-23773.75
2022-08-14T22:21:16.916Z,-23776.41
2022-08-14T22:24:10.710Z,-23766.47
2022-08-14T22:27:01.384Z,-23772.53
2022-08-14T22:29:54.783Z,-23774.22
2022-08-14T22:32:57.758Z,-23774.47
2022-08-14T22:35:45.595Z,-23780.78
2022-08-14T22:38:36.186Z,-23779.81
2022-08-14T22:41:31.571Z,-23779.09
2022-08-14T22:44:28.449Z,-23783.19
2022-08-14T22:47:16.173Z,-23767.19
2022-08-14T22:50:30.170Z,-23760.41
2022-08-14T22:53:12.029Z,-23767.69
2022-08-14T22:55:59.186Z,-23764.28
2022-08-14T22:58:46.563Z,-23763.53
2022-08-14T23:01:55.729Z,-23757.97
2022-08-14T23:04:54.624Z,-23753.59
2022-08-14T23:08:59.123Z,-23751.66
2022-08-14T23:10:49.784Z,-23734.91
2022-08-14T23:13:40.174Z,-23740.97
2022-08-14T23:16:31.379Z,-23753.13
2022-08-14T23:19:20.665Z,-23752.13
2022-08-14T23:22:09.444Z,-23748.25
2022-08-14T23:24:57.759Z,-23747.28
2022-08-14T23:28:03.178Z,-23740.50
2022-08-14T23:30:52.129Z,-23743.41
2022-08-14T23:33:46.012Z,-23743.41
2022-08-14T23:36:54.119Z,-23735.41
2022-08-14T23:39:42.377Z,-23734.91
2022-08-14T23:42:40.080Z,-23728.13
2022-08-14T23:45:36.404Z,-23722.53
2022-08-14T23:48:27.950Z,-23724.72
2022-08-14T23:51:18.142Z,-23722.53
2022-08-14T23:54:48.043Z,-23725.44
2022-08-14T23:57:14.804Z,-23721.81
